Time;durP1;ratioP1;P1;durP2;ratioP2;P2;SDS_P1;SDS_P2;PMS_P1;PMS_P2;Temp;Humidity;BMP_temperature;BMP_pressure;BME280_temperature;BME280_humidity;BME280_pressure;Samples;Min_cycle;Max_cycle;Signal;HPM_P1;HPM_P2
2022/04/05 00:01:51;;;;;;;;;;;6.80;99.90;;;;;;2112107;67;20065;-86
2022/04/05 00:04:33;;;;;;;;;;;6.80;99.90;;;;;;2127071;67;20147;-85
2022/04/05 00:07:16;;;;;;;;;;;6.70;99.90;;;;;;2133193;67;20185;-86
2022/04/05 00:10:00;;;;;;;;;;;6.80;99.90;;;;;;2140765;67;20133;-84
2022/04/05 00:12:42;;;;;;;;;;;6.70;99.90;;;;;;2143152;66;20137;-85
2022/04/05 00:15:23;;;;;;;;;;;6.70;99.90;;;;;;2148407;66;20193;-86
2022/04/05 00:18:06;;;;;;;;;;;6.70;99.90;;;;;;2159599;66;20306;-83
2022/04/05 00:20:52;;;;;;;;;;;6.70;99.90;;;;;;2156531;66;20158;-84
2022/04/05 00:23:38;;;;;;;;;;;6.60;99.90;;;;;;2131685;67;20534;-84
2022/04/05 00:26:22;;;;;;;;;;;6.70;99.90;;;;;;2140762;67;20578;-85
2022/04/05 00:29:03;;;;;;;;;;;6.80;99.90;;;;;;2132905;67;20796;-84
2022/04/05 00:31:45;;;;;;;;;;;6.60;99.90;;;;;;2126692;67;20838;-84
2022/04/05 00:34:27;;;;;;;;;;;6.60;99.90;;;;;;2124471;67;20182;-84
2022/04/05 00:37:11;;;;;;;;;;;6.70;99.90;;;;;;2101508;68;20090;-83
2022/04/05 00:39:52;;;;;;;;;;;6.60;99.90;;;;;;2111157;67;20061;-84
2022/04/05 00:42:34;;;;;;;;;;;6.60;99.90;;;;;;2114151;67;20144;-84
2022/04/05 00:45:16;;;;;;;;;;;6.60;99.90;;;;;;2104528;67;20248;-83
2022/04/05 00:47:59;;;;;;;;;;;6.20;99.90;;;;;;2106128;67;20054;-82
2022/04/05 00:50:41;;;;;;;;;;;6.70;99.90;;;;;;2110277;67;20168;-83
2022/04/05 00:53:26;;;;;;;;;;;6.60;99.90;;;;;;2100494;68;20093;-82
2022/04/05 00:56:11;;;;;;;;;;;6.60;99.90;;;;;;2095838;68;20143;-82
2022/04/05 00:58:53;;;;;;;;;;;6.60;99.90;;;;;;2114478;67;20575;-83
2022/04/05 01:01:35;;;;;;;;;;;6.60;99.90;;;;;;2131182;67;20178;-83
2022/04/05 01:04:17;;;;;;;;;;;6.60;99.90;;;;;;2124513;67;20249;-83
2022/04/05 01:07:01;;;;;;;;;;;6.60;99.90;;;;;;2130892;67;20140;-83
2022/04/05 01:09:44;;;;;;;;;;;6.70;99.90;;;;;;2127126;67;20214;-82
2022/04/05 01:12:28;;;;;;;;;;;6.60;99.90;;;;;;2122531;67;20173;-82
2022/04/05 01:15:12;;;;;;;;;;;6.60;99.90;;;;;;2135789;67;20115;-83
2022/04/05 01:17:55;;;;;;;;;;;6.50;99.90;;;;;;2112382;67;20087;-84
2022/04/05 01:20:40;;;;;;;;;;;6.60;99.90;;;;;;2105183;67;20282;-83
2022/04/05 01:23:22;;;;;;;;;;;6.60;99.90;;;;;;2106190;67;20050;-83
2022/04/05 01:26:03;;;;;;;;;;;6.60;99.90;;;;;;2121804;67;20347;-83
2022/04/05 01:28:45;;;;;;;;;;;6.60;99.90;;;;;;2124365;67;20061;-82
2022/04/05 01:31:27;;;;;;;;;;;6.60;99.90;;;;;;2119504;67;20215;-82
2022/04/05 01:34:08;;;;;;;;;;;6.60;99.90;;;;;;2129648;67;20190;-84
2022/04/05 01:36:52;;;;;;;;;;;6.60;99.90;;;;;;2121107;67;20057;-83
2022/04/05 01:39:37;;;;;;;;;;;6.60;99.90;;;;;;2122165;67;20201;-84
2022/04/05 01:42:19;;;;;;;;;;;6.60;99.90;;;;;;2130572;67;20075;-85
2022/04/05 01:45:01;;;;;;;;;;;6.50;99.90;;;;;;2142108;67;20100;-85
2022/04/05 01:47:43;;;;;;;;;;;6.70;99.90;;;;;;2134750;67;20048;-84
2022/04/05 01:50:24;;;;;;;;;;;6.30;99.90;;;;;;2139195;67;20075;-85
2022/04/05 01:53:06;;;;;;;;;;;6.30;99.90;;;;;;2140736;67;20172;-85
2022/04/05 01:55:51;;;;;;;;;;;6.30;99.90;;;;;;2143146;67;20059;-84
2022/04/05 01:58:34;;;;;;;;;;;6.30;99.90;;;;;;2128911;67;20072;-83
2022/04/05 02:01:16;;;;;;;;;;;6.30;99.90;;;;;;2135667;67;20719;-85
2022/04/05 02:03:58;;;;;;;;;;;6.30;99.90;;;;;;2134699;67;20154;-85
2022/04/05 02:06:40;;;;;;;;;;;6.30;99.90;;;;;;2135990;67;20167;-83
2022/04/05 02:09:24;;;;;;;;;;;6.20;99.90;;;;;;2145753;67;20067;-84
2022/04/05 02:12:05;;;;;;;;;;;6.50;99.90;;;;;;2134381;67;20627;-84
2022/04/05 02:14:48;;;;;;;;;;;6.20;99.90;;;;;;2142447;66;20749;-84
2022/04/05 02:17:32;;;;;;;;;;;6.30;99.90;;;;;;2124010;67;20157;-84
2022/04/05 02:20:15;;;;;;;;;;;6.20;99.90;;;;;;2115664;67;20073;-83
2022/04/05 02:22:57;;;;;;;;;;;6.10;99.90;;;;;;2112001;67;20645;-84
2022/04/05 02:25:40;;;;;;;;;;;6.20;99.90;;;;;;2125729;67;20068;-83
2022/04/05 02:28:25;;;;;;;;;;;6.20;99.90;;;;;;2119102;67;20619;-83
2022/04/05 02:31:10;;;;;;;;;;;6.20;99.90;;;;;;2130759;67;20197;-83
2022/04/05 02:33:53;;;;;;;;;;;6.20;99.90;;;;;;2123881;67;20719;-84
2022/04/05 02:36:39;;;;;;;;;;;6.20;99.90;;;;;;2112709;67;20166;-83
2022/04/05 02:39:23;;;;;;;;;;;6.20;99.90;;;;;;2119583;67;20208;-82
2022/04/05 02:42:09;;;;;;;;;;;6.30;99.90;;;;;;2117748;67;20148;-82
2022/04/05 02:44:50;;;;;;;;;;;6.30;99.90;;;;;;2119041;67;20557;-83
2022/04/05 02:47:32;;;;;;;;;;;6.30;99.90;;;;;;2119661;67;20198;-82
2022/04/05 02:50:17;;;;;;;;;;;6.30;99.90;;;;;;2119627;67;20091;-82
2022/04/05 02:52:59;;;;;;;;;;;6.30;99.90;;;;;;2126153;67;20127;-83
2022/04/05 02:55:41;;;;;;;;;;;6.30;99.90;;;;;;2126647;67;20573;-82
2022/04/05 02:58:25;;;;;;;;;;;6.30;99.90;;;;;;2111442;67;20049;-82
2022/04/05 03:01:09;;;;;;;;;;;6.30;99.90;;;;;;2109944;67;20075;-82
2022/04/05 03:03:50;;;;;;;;;;;6.30;99.90;;;;;;2132704;67;20092;-82
2022/04/05 03:06:32;;;;;;;;;;;6.30;99.90;;;;;;2125693;67;20473;-83
2022/04/05 03:09:13;;;;;;;;;;;6.30;99.90;;;;;;2126307;67;20245;-83
2022/04/05 03:11:56;;;;;;;;;;;6.30;99.90;;;;;;2127983;67;20159;-82
2022/04/05 03:14:42;;;;;;;;;;;6.50;99.90;;;;;;2146033;66;20660;-82
2022/04/05 03:17:26;;;;;;;;;;;6.30;99.90;;;;;;2147558;66;20640;-82
2022/04/05 03:20:12;;;;;;;;;;;6.30;99.90;;;;;;2140015;66;20512;-82
2022/04/05 03:22:55;;;;;;;;;;;6.30;99.90;;;;;;2141288;67;20181;-82
2022/04/05 03:25:36;;;;;;;;;;;6.40;99.90;;;;;;2130929;67;20265;-80
2022/04/05 03:28:21;;;;;;;;;;;6.40;99.90;;;;;;2120655;67;20061;-81
2022/04/05 03:31:03;;;;;;;;;;;6.40;99.90;;;;;;2109533;67;20070;-82
2022/04/05 03:33:44;;;;;;;;;;;6.30;99.90;;;;;;2090087;68;20700;-81
2022/04/05 03:36:27;;;;;;;;;;;6.30;99.90;;;;;;2085466;68;20192;-81
2022/04/05 03:39:13;;;;;;;;;;;6.30;99.90;;;;;;2079349;68;20136;-82
2022/04/05 03:41:55;;;;;;;;;;;6.20;99.90;;;;;;2086280;68;20083;-83
2022/04/05 03:44:37;;;;;;;;;;;6.20;99.90;;;;;;2101249;68;20278;-82
2022/04/05 03:47:19;;;;;;;;;;;6.20;99.90;;;;;;2101722;68;20054;-82
2022/04/05 03:50:04;;;;;;;;;;;6.20;99.90;;;;;;2111464;67;20134;-81
2022/04/05 03:52:45;;;;;;;;;;;6.20;99.90;;;;;;2109170;67;20222;-81
2022/04/05 03:55:27;;;;;;;;;;;6.20;99.90;;;;;;2110880;67;20166;-81
2022/04/05 03:58:11;;;;;;;;;;;6.60;99.90;;;;;;2112079;67;20150;-81
2022/04/05 04:00:53;;;;;;;;;;;6.20;99.90;;;;;;2112212;67;20248;-82
2022/04/05 04:03:35;;;;;;;;;;;6.20;99.90;;;;;;2125910;67;20220;-81
2022/04/05 04:06:16;;;;;;;;;;;6.20;99.90;;;;;;2137569;67;20071;-82
2022/04/05 04:08:59;;;;;;;;;;;6.20;99.90;;;;;;2126853;67;20486;-83
2022/04/05 04:11:44;;;;;;;;;;;6.10;99.90;;;;;;2110290;67;20050;-82
2022/04/05 04:14:26;;;;;;;;;;;6.30;99.90;;;;;;2112004;67;20156;-82
2022/04/05 04:17:07;;;;;;;;;;;6.30;99.90;;;;;;2094661;68;20172;-82
2022/04/05 04:19:49;;;;;;;;;;;6.20;99.90;;;;;;2089760;68;20526;-82
2022/04/05 04:22:30;;;;;;;;;;;6.30;99.90;;;;;;2079404;68;20167;-82
2022/04/05 04:25:13;;;;;;;;;;;6.30;99.90;;;;;;2104529;67;20662;-82
2022/04/05 04:27:58;;;;;;;;;;;6.30;99.90;;;;;;2111664;67;20073;-82
2022/04/05 04:30:40;;;;;;;;;;;6.30;99.90;;;;;;2094731;68;20255;-82
2022/04/05 04:33:26;;;;;;;;;;;6.20;99.90;;;;;;2086594;68;20080;-83
2022/04/05 04:36:10;;;;;;;;;;;6.20;99.90;;;;;;2097823;68;20541;-81
2022/04/05 04:38:52;;;;;;;;;;;6.20;99.90;;;;;;2104451;68;20208;-81
2022/04/05 04:41:34;;;;;;;;;;;6.10;99.90;;;;;;2089896;68;20052;-81
2022/04/05 04:44:18;;;;;;;;;;;6.10;99.90;;;;;;2102755;68;20106;-83
2022/04/05 04:47:00;;;;;;;;;;;6.50;99.90;;;;;;2094589;68;20192;-82
2022/04/05 04:49:42;;;;;;;;;;;6.10;99.90;;;;;;2089627;68;20052;-82
2022/04/05 04:52:24;;;;;;;;;;;6.10;99.90;;;;;;2090194;68;20068;-82
2022/04/05 04:55:06;;;;;;;;;;;6.10;99.90;;;;;;2083223;68;20119;-81
2022/04/05 04:57:47;;;;;;;;;;;6.10;99.90;;;;;;2090036;68;20598;-82
2022/04/05 05:00:30;;;;;;;;;;;6.10;99.90;;;;;;2083435;68;20197;-82
2022/04/05 05:03:18;;;;;;;;;;;6.10;99.90;;;;;;2091696;68;20052;-83
2022/04/05 05:06:04;;;;;;;;;;;6.20;99.90;;;;;;2105278;67;20201;-82
2022/04/05 05:08:51;;;;;;;;;;;6.20;99.90;;;;;;2099267;67;20125;-82
2022/04/05 05:11:32;;;;;;;;;;;6.20;99.90;;;;;;2082698;68;20119;-80
2022/04/05 05:14:14;;;;;;;;;;;6.40;99.90;;;;;;2097382;68;20071;-82
2022/04/05 05:16:55;;;;;;;;;;;6.20;99.90;;;;;;2103894;67;20139;-81
2022/04/05 05:19:40;;;;;;;;;;;6.20;99.90;;;;;;2090214;68;20075;-81
2022/04/05 05:22:21;;;;;;;;;;;6.50;99.90;;;;;;2108020;67;20158;-81
2022/04/05 05:25:02;;;;;;;;;;;6.20;99.90;;;;;;2110374;67;20694;-81
2022/04/05 05:27:45;;;;;;;;;;;6.20;99.90;;;;;;2104268;68;20533;-79
2022/04/05 05:30:30;;;;;;;;;;;6.20;99.90;;;;;;2103460;67;20318;-81
2022/04/05 05:33:11;;;;;;;;;;;5.80;99.90;;;;;;2112896;67;20569;-81
2022/04/05 05:35:53;;;;;;;;;;;6.30;99.90;;;;;;2113981;67;20122;-82
2022/04/05 05:38:34;;;;;;;;;;;6.30;99.90;;;;;;2104325;68;20555;-82
2022/04/05 05:41:16;;;;;;;;;;;6.40;99.90;;;;;;2095878;68;20153;-82
2022/04/05 05:43:59;;;;;;;;;;;6.40;99.90;;;;;;2093098;68;20285;-81
2022/04/05 05:46:45;;;;;;;;;;;6.50;99.90;;;;;;2096875;68;20294;-82
2022/04/05 05:49:28;;;;;;;;;;;6.50;99.90;;;;;;2105639;67;21087;-81
2022/04/05 05:52:10;;;;;;;;;;;6.60;99.90;;;;;;2116073;67;20058;-83
2022/04/05 05:54:53;;;;;;;;;;;6.60;99.90;;;;;;2122072;67;20057;-82
2022/04/05 05:57:40;;;;;;;;;;;6.60;99.90;;;;;;2119025;67;20328;-81
2022/04/05 06:00:24;;;;;;;;;;;6.60;99.90;;;;;;2133763;67;20102;-82
2022/04/05 06:03:05;;;;;;;;;;;6.70;99.90;;;;;;2144460;66;20235;-80
2022/04/05 06:05:49;;;;;;;;;;;6.70;99.90;;;;;;2144688;67;20594;-80
2022/04/05 06:08:31;;;;;;;;;;;6.70;99.90;;;;;;2149033;66;20054;-81
2022/04/05 06:11:13;;;;;;;;;;;6.70;99.90;;;;;;2162926;66;20070;-82
2022/04/05 06:13:55;;;;;;;;;;;6.70;99.90;;;;;;2152316;66;20593;-82
2022/04/05 06:16:38;;;;;;;;;;;6.80;99.90;;;;;;2164026;66;20701;-81
2022/04/05 06:19:23;;;;;;;;;;;6.80;99.90;;;;;;2147840;66;20066;-77
2022/04/05 06:22:04;;;;;;;;;;;6.90;99.90;;;;;;2157969;66;20130;-83
2022/04/05 06:24:46;;;;;;;;;;;6.90;99.90;;;;;;2161885;66;20246;-85
2022/04/05 06:27:29;;;;;;;;;;;6.90;99.90;;;;;;2165430;66;20097;-83
2022/04/05 06:30:12;;;;;;;;;;;7.00;99.90;;;;;;2177709;65;20121;-84
2022/04/05 06:33:05;;;;;;;;;;;7.00;99.90;;;;;;2170329;66;20132;-83
2022/04/05 06:35:47;;;;;;;;;;;7.00;99.90;;;;;;2163702;66;20143;-83
2022/04/05 06:38:34;;;;;;;;;;;7.10;99.90;;;;;;2140550;66;20051;-81
2022/04/05 06:41:21;;;;;;;;;;;7.10;99.90;;;;;;2155225;66;20279;-81
2022/04/05 06:44:04;;;;;;;;;;;7.10;99.90;;;;;;2154934;66;20120;-77
2022/04/05 06:46:46;;;;;;;;;;;7.20;99.90;;;;;;2155347;66;20212;-80
2022/04/05 06:49:32;;;;;;;;;;;7.20;99.90;;;;;;2155667;66;20195;-80
2022/04/05 06:52:17;;;;;;;;;;;7.30;99.90;;;;;;2162764;66;20061;-78
2022/04/05 06:54:47;;;;;;;;;;;7.30;99.90;;;;;;2149154;66;20074;-80
2022/04/05 06:57:37;;;;;;;;;;;7.40;99.90;;;;;;2133373;67;20554;-80
2022/04/05 07:00:27;;;;;;;;;;;7.50;99.90;;;;;;2136503;67;20333;-81
2022/04/05 07:03:04;;;;;;;;;;;7.50;99.90;;;;;;2108047;67;20050;-80
2022/04/05 07:05:41;;;;;;;;;;;7.60;99.90;;;;;;2106163;67;20685;-80
2022/04/05 07:08:26;;;;;;;;;;;7.60;99.90;;;;;;2118450;67;20179;-80
2022/04/05 07:11:26;;;;;;;;;;;7.70;99.90;;;;;;2132660;67;20073;-79
2022/04/05 07:14:10;;;;;;;;;;;7.70;99.90;;;;;;2133879;66;20489;-81
2022/04/05 07:16:46;;;;;;;;;;;7.80;99.90;;;;;;2148862;66;20183;-80
2022/04/05 07:19:21;;;;;;;;;;;7.80;99.90;;;;;;2158457;66;20067;-81
2022/04/05 07:21:53;;;;;;;;;;;7.90;99.90;;;;;;2164844;66;20044;-79
2022/04/05 07:24:43;;;;;;;;;;;7.90;99.90;;;;;;2178675;65;20063;-81
2022/04/05 07:27:33;;;;;;;;;;;7.90;99.90;;;;;;2176946;65;20558;-78
2022/04/05 07:30:12;;;;;;;;;;;8.00;99.90;;;;;;2190783;65;20066;-83
2022/04/05 07:32:43;;;;;;;;;;;8.00;99.90;;;;;;2185960;65;20093;-82
2022/04/05 07:35:33;;;;;;;;;;;8.00;99.90;;;;;;2176944;65;20064;-82
2022/04/05 07:38:24;;;;;;;;;;;8.00;99.90;;;;;;2176349;65;20044;-82
2022/04/05 07:41:00;;;;;;;;;;;8.10;99.90;;;;;;2176404;65;20205;-80
2022/04/05 07:43:39;;;;;;;;;;;8.10;99.90;;;;;;2179963;65;20075;-82
2022/04/05 07:46:15;;;;;;;;;;;8.10;99.90;;;;;;2183654;65;20212;-82
2022/04/05 07:48:56;;;;;;;;;;;8.00;99.90;;;;;;2183620;65;20106;-80
2022/04/05 07:51:32;;;;;;;;;;;8.10;99.90;;;;;;2183582;65;20183;-81
2022/04/05 07:54:14;;;;;;;;;;;8.00;99.90;;;;;;2181823;65;20074;-80
2022/04/05 07:56:58;;;;;;;;;;;8.10;99.90;;;;;;2176044;65;20284;-80
2022/04/05 07:59:45;;;;;;;;;;;8.10;99.90;;;;;;2183165;65;20203;-82
2022/04/05 08:02:27;;;;;;;;;;;8.20;99.90;;;;;;2176171;65;20122;-81
2022/04/05 08:05:12;;;;;;;;;;;8.50;99.90;;;;;;2174765;65;20066;-81
2022/04/05 08:07:56;;;;;;;;;;;8.10;99.90;;;;;;2161041;66;20091;-82
2022/04/05 08:10:40;;;;;;;;;;;8.20;99.90;;;;;;2161386;66;20083;-81
2022/04/05 08:13:23;;;;;;;;;;;8.10;99.90;;;;;;2154057;66;20104;-81
2022/04/05 08:16:06;;;;;;;;;;;8.30;99.90;;;;;;2147215;66;20146;-81
2022/04/05 08:18:52;;;;;;;;;;;8.50;99.90;;;;;;2126958;67;20138;-83
2022/04/05 08:21:35;;;;;;;;;;;8.60;99.90;;;;;;2119619;67;20185;-84
2022/04/05 08:24:20;;;;;;;;;;;8.60;99.90;;;;;;2118113;67;20053;-79
2022/04/05 08:27:01;;;;;;;;;;;8.60;99.90;;;;;;2111479;67;20142;-81
2022/04/05 08:29:45;;;;;;;;;;;8.50;99.90;;;;;;2093385;68;20051;-83
2022/04/05 08:32:27;;;;;;;;;;;8.50;99.90;;;;;;2090231;68;20087;-81
2022/04/05 08:35:12;;;;;;;;;;;8.50;99.90;;;;;;2090109;68;20128;-84
2022/04/05 08:37:54;;;;;;;;;;;8.50;99.90;;;;;;2096655;68;20214;-81
2022/04/05 08:40:37;;;;;;;;;;;8.80;99.90;;;;;;2086719;68;20104;-82
2022/04/05 08:43:26;;;;;;;;;;;8.60;99.90;;;;;;2075472;68;20647;-82
2022/04/05 08:46:10;;;;;;;;;;;8.80;99.90;;;;;;2108445;67;20429;-81
2022/04/05 08:48:53;;;;;;;;;;;8.90;99.90;;;;;;2105656;67;20123;-82
2022/04/05 08:51:34;;;;;;;;;;;8.90;99.90;;;;;;2103506;67;20070;-81
2022/04/05 08:54:19;;;;;;;;;;;9.00;99.90;;;;;;2102946;68;20115;-81
2022/04/05 08:57:01;;;;;;;;;;;9.00;99.90;;;;;;2096797;67;20219;-80
2022/04/05 08:59:44;;;;;;;;;;;9.10;99.90;;;;;;2111032;67;20057;-82
2022/04/05 09:02:25;;;;;;;;;;;9.20;99.90;;;;;;2119006;67;20097;-80
2022/04/05 09:04:55;;;;;;;;;;;9.40;99.90;;;;;;2125634;67;20068;-80
2022/04/05 09:07:37;;;;;;;;;;;9.50;99.90;;;;;;2125735;67;20056;-82
2022/04/05 09:10:16;;;;;;;;;;;9.70;99.90;;;;;;2126175;67;20707;-81
2022/04/05 09:12:55;;;;;;;;;;;9.90;99.90;;;;;;2126247;67;20061;-79
2022/04/05 09:15:34;;;;;;;;;;;10.00;99.90;;;;;;2139400;67;20051;-79
2022/04/05 09:18:05;;;;;;;;;;;10.00;99.90;;;;;;2140285;67;20148;-79
2022/04/05 09:20:48;;;;;;;;;;;10.00;99.90;;;;;;2141491;66;20115;-78
2022/04/05 09:23:31;;;;;;;;;;;10.00;99.90;;;;;;2153769;66;20652;-80
2022/04/05 09:26:10;;;;;;;;;;;10.00;99.90;;;;;;2161648;65;20633;-80
2022/04/05 09:29:06;;;;;;;;;;;10.10;99.90;;;;;;2177113;65;20151;-80
2022/04/05 09:31:43;;;;;;;;;;;10.20;99.90;;;;;;2183369;65;20131;-81
2022/04/05 09:34:21;;;;;;;;;;;9.90;99.90;;;;;;2184258;65;20461;-80
2022/04/05 09:37:11;;;;;;;;;;;9.90;99.90;;;;;;2169442;66;20074;-79
2022/04/05 09:39:47;;;;;;;;;;;9.90;99.90;;;;;;2176226;65;20232;-85
2022/04/05 09:42:29;;;;;;;;;;;9.90;99.90;;;;;;2176604;65;20613;-79
2022/04/05 09:45:40;;;;;;;;;;;9.90;99.90;;;;;;2162456;66;20068;-82
2022/04/05 09:48:32;;;;;;;;;;;9.80;99.90;;;;;;2169415;66;20053;-80
2022/04/05 09:51:14;;;;;;;;;;;10.00;99.90;;;;;;2170182;66;20084;-82
2022/04/05 09:54:27;;;;;;;;;;;9.60;99.90;;;;;;2155566;66;20095;-81
2022/04/05 09:57:14;;;;;;;;;;;9.50;99.90;;;;;;2156325;66;20061;-82
2022/04/05 09:59:50;;;;;;;;;;;9.30;99.90;;;;;;2164791;66;20073;-83
2022/04/05 10:02:32;;;;;;;;;;;9.20;99.90;;;;;;2158231;66;20211;-81
2022/04/05 10:05:18;;;;;;;;;;;9.20;99.90;;;;;;2163381;66;20204;-78
2022/04/05 10:08:01;;;;;;;;;;;9.20;99.90;;;;;;2163791;66;20772;-80
2022/04/05 10:10:52;;;;;;;;;;;9.30;99.90;;;;;;2156443;66;20070;-83
2022/04/05 10:13:55;;;;;;;;;;;9.40;99.90;;;;;;2158142;66;20293;-80
2022/04/05 10:16:38;;;;;;;;;;;9.40;99.90;;;;;;2165611;66;20052;-81
2022/04/05 10:19:19;;;;;;;;;;;9.40;99.90;;;;;;2163050;66;21080;-83
2022/04/05 10:22:03;;;;;;;;;;;9.50;99.90;;;;;;2161998;66;20140;-83
2022/04/05 10:24:49;;;;;;;;;;;9.50;99.90;;;;;;2156296;66;20199;-80
2022/04/05 10:27:30;;;;;;;;;;;9.50;99.90;;;;;;2148534;66;20058;-79
2022/04/05 10:30:31;;;;;;;;;;;9.40;99.90;;;;;;2142618;67;20204;-82
2022/04/05 10:33:17;;;;;;;;;;;9.50;99.90;;;;;;2125487;67;20288;-80
2022/04/05 10:36:02;;;;;;;;;;;9.60;99.90;;;;;;2117154;67;20160;-76
2022/04/05 10:39:03;;;;;;;;;;;9.50;99.90;;;;;;2119243;67;20081;-76
2022/04/05 10:42:04;;;;;;;;;;;9.40;99.90;;;;;;2123540;67;20137;-79
2022/04/05 10:44:53;;;;;;;;;;;9.40;99.90;;;;;;2141823;66;20298;-81
2022/04/05 10:47:54;;;;;;;;;;;9.40;99.90;;;;;;2140569;67;20651;-80
2022/04/05 10:50:41;;;;;;;;;;;9.40;99.90;;;;;;2126859;67;20103;-82
2022/04/05 10:53:29;;;;;;;;;;;9.40;99.90;;;;;;2118056;67;20703;-81
2022/04/05 10:56:12;;;;;;;;;;;9.60;99.90;;;;;;2120183;67;20203;-81
2022/04/05 10:59:11;;;;;;;;;;;9.80;99.90;;;;;;2112700;67;20123;-84
2022/04/05 11:01:53;;;;;;;;;;;10.00;99.90;;;;;;2123332;67;20209;-80
2022/04/05 11:04:35;;;;;;;;;;;10.20;99.90;;;;;;2112435;67;20061;-81
2022/04/05 11:07:16;;;;;;;;;;;10.40;99.90;;;;;;2112526;67;20270;-82
2022/04/05 11:10:00;;;;;;;;;;;10.70;99.90;;;;;;2113111;67;20597;-83
2022/04/05 11:12:30;;;;;;;;;;;10.50;99.90;;;;;;2111653;67;20207;-83
2022/04/05 11:15:21;;;;;;;;;;;10.40;99.90;;;;;;2113805;67;20062;-87
2022/04/05 11:18:33;;;;;;;;;;;10.20;99.90;;;;;;2113090;67;20532;-81
2022/04/05 11:21:21;;;;;;;;;;;9.60;99.90;;;;;;2119549;67;20132;-79
2022/04/05 11:24:24;;;;;;;;;;;10.20;99.90;;;;;;2133399;66;20675;-82
2022/04/05 11:27:24;;;;;;;;;;;10.30;99.90;;;;;;2139039;66;20126;-83
2022/04/05 11:30:37;;;;;;;;;;;10.30;99.90;;;;;;2151957;66;20058;-83
2022/04/05 11:33:25;;;;;;;;;;;10.40;99.90;;;;;;2155754;66;20183;-79
2022/04/05 11:36:46;;;;;;;;;;;10.60;99.90;;;;;;2166158;65;20147;-78
2022/04/05 11:39:27;;;;;;;;;;;10.70;99.90;;;;;;2188116;65;20190;-75
2022/04/05 11:42:17;;;;;;;;;;;10.70;99.90;;;;;;2190947;65;20094;-76
2022/04/05 11:44:57;;;;;;;;;;;10.60;99.90;;;;;;2201205;65;20071;-82
2022/04/05 11:47:56;;;;;;;;;;;10.40;99.90;;;;;;2184347;65;20157;-83
2022/04/05 11:50:46;;;;;;;;;;;10.40;99.90;;;;;;2178552;65;20170;-83
2022/04/05 11:53:25;;;;;;;;;;;10.40;99.90;;;;;;2176779;65;20095;-81
2022/04/05 11:56:28;;;;;;;;;;;10.60;99.90;;;;;;2177199;65;20128;-81
2022/04/05 11:59:13;;;;;;;;;;;10.40;99.90;;;;;;2181063;65;20156;-81
2022/04/05 12:01:58;;;;;;;;;;;10.60;99.90;;;;;;2176975;65;20095;-78
2022/04/05 12:04:44;;;;;;;;;;;10.70;99.90;;;;;;2179197;65;20139;-79
2022/04/05 12:07:55;;;;;;;;;;;10.80;99.90;;;;;;2177966;65;20532;-79
2022/04/05 12:10:47;;;;;;;;;;;10.70;99.90;;;;;;2162653;66;20159;-81
2022/04/05 12:13:29;;;;;;;;;;;11.10;99.90;;;;;;2161976;66;20072;-82
2022/04/05 12:16:13;;;;;;;;;;;11.30;99.90;;;;;;2145738;66;20165;-79
2022/04/05 12:19:00;;;;;;;;;;;11.70;99.90;;;;;;2152764;66;20621;-78
2022/04/05 12:21:43;;;;;;;;;;;11.90;99.90;;;;;;2139782;66;20080;-81
2022/04/05 12:24:27;;;;;;;;;;;12.00;99.90;;;;;;2139507;67;20244;-79
2022/04/05 12:27:08;;;;;;;;;;;12.20;99.90;;;;;;2125058;67;20279;-81
2022/04/05 12:29:55;;;;;;;;;;;12.30;99.90;;;;;;2117774;67;20049;-80
2022/04/05 12:32:36;;;;;;;;;;;12.40;99.90;;;;;;2118459;67;20662;-80
2022/04/05 12:35:13;;;;;;;;;;;12.40;99.90;;;;;;2119274;67;20606;-79
2022/04/05 12:37:49;;;;;;;;;;;12.40;99.90;;;;;;2120987;67;20120;-82
2022/04/05 12:40:44;;;;;;;;;;;12.50;99.90;;;;;;2122297;67;20117;-83
2022/04/05 12:43:39;;;;;;;;;;;12.40;99.90;;;;;;2120480;67;20172;-84
2022/04/05 12:46:12;;;;;;;;;;;12.40;99.90;;;;;;2114117;67;20117;-78
2022/04/05 12:48:54;;;;;;;;;;;12.30;99.90;;;;;;2127206;67;20078;-80
2022/04/05 12:51:33;;;;;;;;;;;12.10;99.90;;;;;;2145523;66;20601;-82
2022/04/05 12:54:31;;;;;;;;;;;12.00;99.90;;;;;;2171583;66;20045;-81
2022/04/05 12:57:33;;;;;;;;;;;12.40;99.90;;;;;;2171444;66;20146;-80
2022/04/05 13:00:20;;;;;;;;;;;11.80;99.90;;;;;;2165317;66;20949;-78
2022/04/05 13:03:12;;;;;;;;;;;11.60;99.90;;;;;;2171655;66;20107;-80
2022/04/05 13:09:29;;;;;;;;;;;11.20;99.90;;;;;;2179209;65;20063;-85
2022/04/05 13:12:19;;;;;;;;;;;10.70;99.90;;;;;;2187161;65;20147;-81
2022/04/05 13:15:18;;;;;;;;;;;10.70;99.90;;;;;;2189881;65;20082;-86
2022/04/05 13:18:12;;;;;;;;;;;10.40;99.90;;;;;;2195018;65;20128;-81
2022/04/05 13:21:20;;;;;;;;;;;10.30;99.90;;;;;;2201238;64;20142;-82
2022/04/05 13:24:21;;;;;;;;;;;10.10;99.90;;;;;;2194040;65;20080;-83
2022/04/05 13:27:06;;;;;;;;;;;10.00;99.90;;;;;;2197208;65;20106;-83
2022/04/05 13:30:11;;;;;;;;;;;10.00;99.90;;;;;;2185735;65;20147;-85
2022/04/05 13:33:10;;;;;;;;;;;9.90;99.90;;;;;;2179488;65;20472;-84
2022/04/05 13:36:09;;;;;;;;;;;9.80;99.90;;;;;;2156302;66;20123;-83
2022/04/05 13:38:52;;;;;;;;;;;9.80;99.90;;;;;;2151445;66;20126;-83
2022/04/05 13:41:36;;;;;;;;;;;9.80;99.90;;;;;;2135467;66;20138;-83
2022/04/05 13:44:19;;;;;;;;;;;9.80;99.90;;;;;;2134933;67;20232;-83
2022/04/05 13:47:03;;;;;;;;;;;9.80;99.90;;;;;;2127471;67;20830;-83
2022/04/05 13:49:47;;;;;;;;;;;9.70;99.90;;;;;;2126593;67;20237;-84
2022/04/05 13:52:34;;;;;;;;;;;9.80;99.90;;;;;;2112057;67;20081;-81
2022/04/05 13:55:24;;;;;;;;;;;9.70;99.90;;;;;;2107334;67;20149;-79
2022/04/05 13:58:06;;;;;;;;;;;10.00;99.90;;;;;;2097364;68;20769;-81
2022/04/05 14:00:48;;;;;;;;;;;9.70;99.90;;;;;;2094572;68;20071;-80
2022/04/05 14:03:30;;;;;;;;;;;9.60;99.90;;;;;;2099379;68;20669;-79
2022/04/05 14:06:15;;;;;;;;;;;9.60;99.90;;;;;;2092245;68;20909;-79
2022/04/05 14:09:01;;;;;;;;;;;9.60;99.90;;;;;;2118811;67;20274;-80
2022/04/05 14:11:48;;;;;;;;;;;9.60;99.90;;;;;;2116985;67;20160;-77
2022/04/05 14:14:31;;;;;;;;;;;9.60;99.90;;;;;;2112604;67;20693;-77
2022/04/05 14:17:16;;;;;;;;;;;9.60;99.90;;;;;;2110486;67;20235;-76
2022/04/05 14:20:01;;;;;;;;;;;9.60;99.90;;;;;;2113407;67;20069;-80
2022/04/05 14:22:38;;;;;;;;;;;9.70;99.90;;;;;;2112950;67;20173;-84
2022/04/05 14:25:12;;;;;;;;;;;9.70;99.90;;;;;;2112300;67;20425;-81
2022/04/05 14:27:48;;;;;;;;;;;9.70;99.90;;;;;;2119329;67;20179;-83
2022/04/05 14:30:25;;;;;;;;;;;9.30;99.90;;;;;;2119503;67;20102;-82
2022/04/05 14:32:55;;;;;;;;;;;9.70;99.90;;;;;;2115600;67;20072;-87
2022/04/05 14:35:36;;;;;;;;;;;9.30;99.90;;;;;;2141222;66;20071;-83
2022/04/05 14:38:13;;;;;;;;;;;9.80;99.90;;;;;;2153499;66;20264;-80
2022/04/05 14:40:55;;;;;;;;;;;9.80;99.90;;;;;;2164789;66;20160;-81
2022/04/05 14:43:41;;;;;;;;;;;9.80;99.90;;;;;;2183487;65;20050;-84
2022/04/05 14:46:33;;;;;;;;;;;9.80;99.90;;;;;;2201808;65;20097;-81
2022/04/05 14:49:09;;;;;;;;;;;9.80;99.90;;;;;;2216666;64;20160;-83
2022/04/05 14:51:53;;;;;;;;;;;9.80;99.90;;;;;;2226356;64;20039;-85
2022/04/05 14:54:32;;;;;;;;;;;9.80;99.90;;;;;;2227989;64;20085;-82
2022/04/05 14:57:03;;;;;;;;;;;9.80;99.90;;;;;;2214914;64;20072;-81
2022/04/05 15:00:02;;;;;;;;;;;9.80;99.90;;;;;;2219720;64;20071;-83
2022/04/05 15:02:41;;;;;;;;;;;9.40;99.90;;;;;;2219980;64;20181;-82
2022/04/05 15:05:13;;;;;;;;;;;9.80;99.90;;;;;;2211816;64;20076;-80
2022/04/05 15:08:03;;;;;;;;;;;10.60;99.90;;;;;;2201991;65;20222;-80
2022/04/05 15:10:50;;;;;;;;;;;9.70;99.90;;;;;;2205530;65;20064;-85
2022/04/05 15:13:48;;;;;;;;;;;9.70;99.90;;;;;;2200780;65;20118;-79
2022/04/05 15:17:30;;;;;;;;;;;9.80;99.90;;;;;;2187992;65;20085;-81
2022/04/05 15:20:00;;;;;;;;;;;9.80;99.90;;;;;;2192438;65;20503;-80
2022/04/05 15:22:38;;;;;;;;;;;9.80;99.90;;;;;;2184531;65;20170;-78
2022/04/05 15:25:22;;;;;;;;;;;9.80;99.90;;;;;;2169182;66;20598;-79
2022/04/05 15:28:06;;;;;;;;;;;9.80;99.90;;;;;;2161359;66;20089;-78
2022/04/05 15:30:53;;;;;;;;;;;9.80;99.90;;;;;;2154484;66;20329;-79
2022/04/05 15:33:41;;;;;;;;;;;9.80;99.90;;;;;;2155176;66;20209;-76
2022/04/05 15:36:22;;;;;;;;;;;9.80;99.90;;;;;;2154297;66;20202;-76
2022/04/05 15:39:05;;;;;;;;;;;9.80;99.90;;;;;;2147673;66;20382;-78
2022/04/05 15:41:51;;;;;;;;;;;9.90;99.90;;;;;;2146601;66;20199;-77
2022/04/05 15:44:35;;;;;;;;;;;9.80;99.90;;;;;;2146636;66;20296;-78
2022/04/05 15:47:22;;;;;;;;;;;9.90;99.90;;;;;;2138616;67;20557;-80
2022/04/05 15:50:05;;;;;;;;;;;9.80;99.90;;;;;;2126226;67;20089;-81
2022/04/05 15:52:46;;;;;;;;;;;9.90;99.90;;;;;;2122541;67;20057;-81
2022/04/05 15:55:31;;;;;;;;;;;9.90;99.90;;;;;;2104337;68;20151;-82
2022/04/05 15:58:18;;;;;;;;;;;9.90;99.90;;;;;;2101585;68;20091;-79
2022/04/05 16:01:02;;;;;;;;;;;9.90;99.90;;;;;;2101363;67;20251;-79
2022/04/05 16:03:45;;;;;;;;;;;9.90;99.90;;;;;;2131837;67;20081;-81
2022/04/05 16:06:30;;;;;;;;;;;9.90;99.90;;;;;;2131047;67;20052;-79
2022/04/05 16:09:09;;;;;;;;;;;9.80;99.90;;;;;;2131905;67;20630;-83
2022/04/05 16:11:48;;;;;;;;;;;9.80;99.90;;;;;;2125132;67;20171;-81
2022/04/05 16:14:24;;;;;;;;;;;9.80;99.90;;;;;;2120137;67;20230;-85